createdAt,value
2019-01-13T00:00:46.182Z,2.15
2019-01-13T00:02:49.098Z,2.60
2019-01-13T00:04:52.771Z,2.20
2019-01-13T00:06:55.754Z,2.42
2019-01-13T00:08:58.648Z,2.20
2019-01-13T00:11:01.535Z,2.10
2019-01-13T00:13:05.168Z,2.35
2019-01-13T00:15:08.031Z,2.93
2019-01-13T00:17:12.006Z,2.53
2019-01-13T00:19:14.998Z,2.20
2019-01-13T00:21:17.878Z,2.30
2019-01-13T00:23:21.554Z,2.40
2019-01-13T00:25:24.430Z,2.40
2019-01-13T00:27:27.325Z,2.62
2019-01-13T00:29:30.218Z,2.58
2019-01-13T00:31:33.865Z,3.05
2019-01-13T00:33:37.543Z,2.10
2019-01-13T00:35:41.207Z,2.50
2019-01-13T00:37:44.082Z,2.22
2019-01-13T00:39:48.982Z,2.35
2019-01-13T00:41:51.896Z,3.20
2019-01-13T00:43:54.766Z,2.90
2019-01-13T00:45:57.659Z,2.25
2019-01-13T00:48:00.528Z,2.30
2019-01-13T00:50:03.408Z,2.92
2019-01-13T00:52:06.409Z,2.47
2019-01-13T00:54:09.278Z,2.78
2019-01-13T00:56:12.158Z,2.58
2019-01-13T00:58:15.081Z,2.58
2019-01-13T01:00:18.710Z,2.40
2019-01-13T01:02:22.515Z,2.60
2019-01-13T01:04:25.638Z,1.80
2019-01-13T01:06:28.610Z,3.05
2019-01-13T01:08:31.686Z,2.30
2019-01-13T01:10:34.680Z,2.25
2019-01-13T01:12:37.555Z,2.70
2019-01-13T01:14:41.691Z,2.75
2019-01-13T01:16:45.371Z,2.80
2019-01-13T01:18:48.297Z,3.00
2019-01-13T01:20:51.250Z,2.60
2019-01-13T01:22:54.901Z,2.87
2019-01-13T01:24:57.767Z,2.53
2019-01-13T01:27:00.795Z,2.65
2019-01-13T01:29:03.706Z,2.60
2019-01-13T01:31:07.492Z,2.83
2019-01-13T01:33:10.814Z,2.00
2019-01-13T01:35:14.486Z,2.10
2019-01-13T01:37:18.864Z,2.57
2019-01-13T01:39:21.770Z,2.95
2019-01-13T01:41:25.172Z,2.40
2019-01-13T01:43:28.965Z,2.75
2019-01-13T01:45:31.882Z,2.45
2019-01-13T01:47:35.503Z,2.92
2019-01-13T01:49:38.836Z,2.20
2019-01-13T01:51:41.919Z,2.45
2019-01-13T01:53:44.794Z,2.15
2019-01-13T01:55:48.544Z,2.40
2019-01-13T01:57:52.157Z,2.53
2019-01-13T01:59:55.074Z,2.08
2019-01-13T02:01:57.973Z,2.65
2019-01-13T02:04:00.996Z,1.90
2019-01-13T02:06:04.618Z,2.20
2019-01-13T02:08:07.626Z,1.93
2019-01-13T02:10:10.471Z,1.80
2019-01-13T02:12:13.743Z,2.17
2019-01-13T02:14:17.028Z,2.20
2019-01-13T02:16:20.736Z,2.35
2019-01-13T02:18:24.397Z,2.47
2019-01-13T02:20:27.358Z,2.47
2019-01-13T02:22:30.266Z,2.42
2019-01-13T02:24:33.186Z,2.42
2019-01-13T02:26:36.116Z,2.67
2019-01-13T02:28:40.545Z,3.05
2019-01-13T02:30:49.106Z,2.15
2019-01-13T02:32:47.422Z,2.20
2019-01-13T02:34:50.322Z,2.00
2019-01-13T02:36:53.255Z,2.30
2019-01-13T02:38:56.186Z,2.62
2019-01-13T02:40:59.109Z,2.20
2019-01-13T02:43:02.583Z,2.50
2019-01-13T02:45:14.950Z,2.22
2019-01-13T02:47:17.966Z,1.70
2019-01-13T02:49:21.662Z,2.43
2019-01-13T02:51:25.330Z,2.10
2019-01-13T02:53:28.230Z,2.33
2019-01-13T02:55:31.552Z,2.58
2019-01-13T02:57:34.450Z,1.85
2019-01-13T02:59:37.405Z,1.65
2019-01-13T03:01:41.204Z,2.17
2019-01-13T03:03:44.866Z,2.55
2019-01-13T03:05:47.799Z,2.03
2019-01-13T03:07:50.744Z,1.90
2019-01-13T03:09:53.647Z,2.30
2019-01-13T03:11:56.566Z,1.77
2019-01-13T03:13:59.613Z,1.80
2019-01-13T03:16:03.285Z,1.95
2019-01-13T03:18:06.218Z,2.30
2019-01-13T03:20:09.284Z,1.70
2019-01-13T03:22:12.221Z,2.53
2019-01-13T03:24:15.161Z,1.48
2019-01-13T03:26:18.234Z,2.65
2019-01-13T03:28:21.161Z,2.20
2019-01-13T03:30:24.086Z,1.80
2019-01-13T03:32:27.902Z,2.40
2019-01-13T03:34:30.838Z,2.80
2019-01-13T03:36:33.809Z,1.90
2019-01-13T03:38:36.855Z,2.70
2019-01-13T03:40:39.766Z,2.23
2019-01-13T03:42:42.706Z,1.90
2019-01-13T03:44:46.512Z,2.60
2019-01-13T03:46:50.193Z,3.37
2019-01-13T03:48:53.918Z,2.45
2019-01-13T03:50:56.897Z,2.50
2019-01-13T03:53:00.552Z,2.67
2019-01-13T03:55:03.580Z,3.20
2019-01-13T03:57:06.521Z,3.00
2019-01-13T03:59:09.428Z,2.28
2019-01-13T04:01:18.491Z,3.30
2019-01-13T04:03:16.071Z,2.80
2019-01-13T04:05:18.981Z,3.07
2019-01-13T04:07:22.667Z,2.75
2019-01-13T04:09:25.645Z,3.08
2019-01-13T04:11:28.566Z,2.17
2019-01-13T04:13:32.238Z,2.50
2019-01-13T04:15:36.044Z,2.50
2019-01-13T04:17:39.056Z,2.70
2019-01-13T04:19:42.747Z,2.58
2019-01-13T04:21:46.562Z,3.15
2019-01-13T04:23:49.501Z,2.50
2019-01-13T04:25:52.402Z,2.85
2019-01-13T04:27:56.122Z,1.98
2019-01-13T04:30:00.636Z,2.70
2019-01-13T04:32:04.301Z,2.90
2019-01-13T04:34:07.248Z,2.77
2019-01-13T04:36:10.163Z,2.92
2019-01-13T04:38:13.081Z,2.70
2019-01-13T04:40:17.209Z,2.45
2019-01-13T04:42:20.113Z,2.30
2019-01-13T04:44:23.031Z,2.10
2019-01-13T04:46:26.757Z,3.20
2019-01-13T04:48:30.425Z,3.53
2019-01-13T04:50:33.335Z,3.30
2019-01-13T04:52:36.470Z,2.30
2019-01-13T04:54:39.372Z,2.80
2019-01-13T04:56:42.333Z,2.85
2019-01-13T04:58:45.387Z,3.00
2019-01-13T05:00:48.293Z,3.33
2019-01-13T05:02:51.216Z,2.67
2019-01-13T05:04:55.036Z,2.85
2019-01-13T05:06:58.705Z,3.22
2019-01-13T05:09:01.718Z,3.35
2019-01-13T05:11:05.761Z,4.18
2019-01-13T05:13:08.669Z,3.20
2019-01-13T05:15:12.478Z,3.10
2019-01-13T05:17:15.415Z,3.50
2019-01-13T05:19:18.321Z,3.20
2019-01-13T05:21:21.229Z,3.40
2019-01-13T05:23:24.181Z,3.45
2019-01-13T05:25:27.096Z,3.53
2019-01-13T05:27:30.100Z,3.80
2019-01-13T05:29:34.006Z,3.35
2019-01-13T05:31:41.923Z,4.18
2019-01-13T05:33:40.725Z,3.03
2019-01-13T05:35:43.798Z,2.97
2019-01-13T05:37:46.711Z,3.93
2019-01-13T05:39:49.606Z,3.60
2019-01-13T05:41:52.566Z,3.57
2019-01-13T05:43:55.479Z,3.50
2019-01-13T05:45:58.408Z,4.30
2019-01-13T05:48:02.491Z,3.58
2019-01-13T05:50:06.220Z,3.37
2019-01-13T05:52:09.123Z,3.55
2019-01-13T05:54:12.601Z,3.67
2019-01-13T05:56:15.511Z,3.60
2019-01-13T05:58:18.409Z,4.13
2019-01-13T06:00:21.429Z,4.17
2019-01-13T06:02:24.346Z,3.50
2019-01-13T06:04:27.253Z,3.97
2019-01-13T06:06:30.210Z,4.12
2019-01-13T06:08:33.145Z,4.10
2019-01-13T06:10:36.846Z,3.50
2019-01-13T06:12:40.565Z,3.60
2019-01-13T06:14:43.474Z,3.80
2019-01-13T06:16:46.381Z,3.78
2019-01-13T06:18:50.335Z,4.20
2019-01-13T06:20:53.256Z,3.80
2019-01-13T06:22:56.276Z,4.10
2019-01-13T06:24:59.981Z,3.70
2019-01-13T06:27:03.658Z,3.97
2019-01-13T06:29:06.564Z,3.60
2019-01-13T06:31:10.314Z,4.20
2019-01-13T06:33:13.269Z,3.25
2019-01-13T06:35:16.174Z,3.17
2019-01-13T06:37:19.133Z,3.05
2019-01-13T06:39:22.045Z,3.40
2019-01-13T06:41:24.967Z,3.55
2019-01-13T06:43:28.771Z,3.65
2019-01-13T06:45:32.441Z,3.58
2019-01-13T06:47:35.452Z,3.30
2019-01-13T06:49:39.356Z,2.90
2019-01-13T06:51:43.026Z,3.25
2019-01-13T06:53:45.941Z,3.65
2019-01-13T06:55:48.896Z,4.05
2019-01-13T06:57:51.902Z,3.28
2019-01-13T06:59:55.578Z,3.53
2019-01-13T07:02:03.388Z,3.40
2019-01-13T07:04:02.975Z,3.42
2019-01-13T07:06:06.668Z,3.00
2019-01-13T07:08:11.142Z,3.50
2019-01-13T07:10:14.893Z,2.80
2019-01-13T07:12:17.817Z,3.03
2019-01-13T07:14:21.136Z,3.53
2019-01-13T07:16:24.046Z,3.40
2019-01-13T07:18:27.735Z,3.33
2019-01-13T07:20:30.968Z,3.22
2019-01-13T07:22:33.901Z,2.87
2019-01-13T07:24:36.930Z,3.35
2019-01-13T07:26:41.077Z,3.17
2019-01-13T07:28:44.003Z,3.35
2019-01-13T07:30:47.681Z,3.70
2019-01-13T07:32:50.650Z,3.78
2019-01-13T07:34:53.678Z,2.70
2019-01-13T07:36:57.348Z,3.62
2019-01-13T07:39:00.307Z,4.07
2019-01-13T07:41:03.229Z,3.70
2019-01-13T07:43:06.239Z,3.93
2019-01-13T07:45:09.958Z,4.65
2019-01-13T07:47:12.885Z,4.00
2019-01-13T07:49:15.785Z,3.90
2019-01-13T07:51:18.713Z,3.80
2019-01-13T07:53:22.454Z,3.72
2019-01-13T07:55:25.463Z,3.80
2019-01-13T07:57:29.266Z,4.15
2019-01-13T07:59:32.942Z,4.50
2019-01-13T08:01:35.873Z,4.45
2019-01-13T08:03:38.934Z,4.15
2019-01-13T08:05:42.609Z,4.30
2019-01-13T08:07:45.525Z,4.12
2019-01-13T08:09:48.473Z,4.05
2019-01-13T08:11:51.377Z,4.03
2019-01-13T08:13:54.293Z,4.68
2019-01-13T08:15:57.226Z,4.07
2019-01-13T08:18:00.694Z,4.82
2019-01-13T08:20:03.618Z,4.40
2019-01-13T08:22:07.330Z,3.95
2019-01-13T08:24:10.237Z,4.35
2019-01-13T08:26:13.182Z,4.50
2019-01-13T08:28:16.981Z,4.00
2019-01-13T08:30:20.668Z,3.87
2019-01-13T08:32:25.049Z,4.20
2019-01-13T08:34:27.486Z,3.87
2019-01-13T08:36:31.141Z,3.77
2019-01-13T08:38:34.101Z,3.45
2019-01-13T08:40:37.339Z,4.23
2019-01-13T08:42:41.037Z,3.83
2019-01-13T08:44:44.737Z,3.47
2019-01-13T08:46:48.548Z,3.70
2019-01-13T08:48:51.470Z,4.45
2019-01-13T08:50:54.384Z,3.40
2019-01-13T08:52:58.598Z,3.40
2019-01-13T08:55:02.279Z,3.40
2019-01-13T08:57:05.209Z,3.20
2019-01-13T08:59:08.253Z,2.83
2019-01-13T09:01:11.171Z,3.47
2019-01-13T09:03:14.845Z,2.67
2019-01-13T09:05:18.664Z,3.65
2019-01-13T09:07:22.340Z,3.12
2019-01-13T09:09:25.352Z,3.10
2019-01-13T09:11:28.637Z,3.35
2019-01-13T09:13:32.307Z,2.80
2019-01-13T09:15:35.319Z,2.75
2019-01-13T09:17:39.406Z,2.33
2019-01-13T09:19:42.412Z,2.60
2019-01-13T09:21:46.109Z,2.10
2019-01-13T09:23:49.096Z,2.22
2019-01-13T09:25:52.764Z,2.93
2019-01-13T09:27:55.782Z,1.93
2019-01-13T09:29:59.495Z,2.50
2019-01-13T09:32:02.418Z,2.60
2019-01-13T09:34:05.321Z,2.70
2019-01-13T09:36:09.123Z,2.35
2019-01-13T09:38:12.128Z,2.43
2019-01-13T09:40:16.693Z,2.60
2019-01-13T09:42:19.633Z,2.40
2019-01-13T09:44:22.545Z,2.03
2019-01-13T09:46:25.462Z,1.98
2019-01-13T09:48:29.922Z,2.10
2019-01-13T09:50:32.850Z,1.77
2019-01-13T09:52:35.773Z,2.62
2019-01-13T09:54:39.492Z,1.87
2019-01-13T09:56:42.398Z,1.85
2019-01-13T09:58:45.739Z,1.80
2019-01-13T10:00:49.498Z,2.10
2019-01-13T10:02:52.397Z,1.37
2019-01-13T10:04:55.298Z,1.70
2019-01-13T10:06:58.886Z,1.40
2019-01-13T10:09:01.892Z,1.98
2019-01-13T10:11:05.556Z,1.40
2019-01-13T10:13:08.706Z,1.02
2019-01-13T10:15:13.927Z,1.70
2019-01-13T10:17:16.057Z,1.57
2019-01-13T10:19:19.883Z,1.35
2019-01-13T10:21:23.552Z,1.52
2019-01-13T10:23:26.476Z,1.60
2019-01-13T10:25:29.547Z,1.80
2019-01-13T10:27:32.459Z,1.70
2019-01-13T10:29:35.398Z,2.00
2019-01-13T10:31:39.209Z,1.62
2019-01-13T10:33:42.899Z,1.95
2019-01-13T10:35:46.575Z,1.83
2019-01-13T10:37:49.530Z,1.40
2019-01-13T10:39:52.440Z,1.85
2019-01-13T10:41:55.457Z,1.30
2019-01-13T10:43:59.166Z,1.90
2019-01-13T10:46:02.587Z,1.23
2019-01-13T10:48:05.501Z,1.20
2019-01-13T10:50:12.385Z,1.70
2019-01-13T10:52:16.721Z,1.75
2019-01-13T10:54:20.395Z,1.67
2019-01-13T10:56:23.521Z,1.90
2019-01-13T10:58:26.431Z,1.35
2019-01-13T11:00:29.341Z,1.70
2019-01-13T11:02:32.326Z,1.52
2019-01-13T11:04:35.257Z,1.85
2019-01-13T11:06:38.161Z,1.80
2019-01-13T11:08:41.204Z,1.90
2019-01-13T11:10:44.116Z,1.20
2019-01-13T11:12:47.033Z,1.67
2019-01-13T11:14:49.969Z,1.20
2019-01-13T11:16:52.868Z,1.20
2019-01-13T11:18:57.406Z,1.30
2019-01-13T11:20:59.712Z,1.10
2019-01-13T11:23:03.382Z,1.10
2019-01-13T11:25:06.395Z,0.80
2019-01-13T11:27:10.198Z,1.20
2019-01-13T11:29:13.161Z,1.70
2019-01-13T11:31:16.944Z,1.30
2019-01-13T11:33:19.993Z,0.90
2019-01-13T11:35:22.982Z,1.33
2019-01-13T11:37:25.895Z,1.03
2019-01-13T11:39:28.825Z,1.20
2019-01-13T11:41:32.498Z,1.40
2019-01-13T11:43:35.496Z,1.10
2019-01-13T11:45:39.401Z,1.10
2019-01-13T11:47:43.077Z,1.73
2019-01-13T11:49:46.003Z,1.03
2019-01-13T11:51:49.101Z,1.80
2019-01-13T11:53:52.027Z,1.48
2019-01-13T11:55:54.956Z,1.62
2019-01-13T11:57:58.016Z,1.52
2019-01-13T12:00:02.298Z,1.65
2019-01-13T12:02:05.234Z,1.50
2019-01-13T12:04:08.668Z,1.15
2019-01-13T12:06:11.561Z,1.30
2019-01-13T12:08:14.490Z,1.10
2019-01-13T12:10:18.414Z,0.93
2019-01-13T12:12:21.325Z,1.30
2019-01-13T12:14:24.361Z,0.80
2019-01-13T12:16:29.597Z,0.97
2019-01-13T12:18:32.509Z,1.00
2019-01-13T12:20:35.441Z,0.90
2019-01-13T12:22:38.442Z,0.90
2019-01-13T12:24:41.349Z,0.88
2019-01-13T12:26:44.293Z,1.00
2019-01-13T12:28:48.004Z,0.90
2019-01-13T12:30:50.913Z,0.90
2019-01-13T12:32:53.849Z,0.80
2019-01-13T12:34:56.801Z,1.00
2019-01-13T12:36:59.726Z,0.83
2019-01-13T12:39:02.663Z,0.70
2019-01-13T12:41:05.622Z,1.00
2019-01-13T12:43:08.539Z,0.80
2019-01-13T12:45:11.558Z,1.20
2019-01-13T12:47:14.737Z,0.80
2019-01-13T12:49:17.654Z,0.82
2019-01-13T12:51:20.696Z,1.00
2019-01-13T12:53:24.497Z,0.80
2019-01-13T12:55:28.185Z,0.80
2019-01-13T12:57:31.102Z,0.90
2019-01-13T12:59:34.182Z,0.75
2019-01-13T13:01:37.076Z,0.80
2019-01-13T13:03:39.995Z,0.90
2019-01-13T13:05:43.112Z,0.87
2019-01-13T13:07:46.094Z,0.82
2019-01-13T13:09:49.775Z,0.87
2019-01-13T13:11:52.711Z,0.80
2019-01-13T13:13:55.619Z,0.90
2019-01-13T13:15:58.744Z,1.10
2019-01-13T13:18:02.835Z,1.00
2019-01-13T13:20:06.533Z,1.10
2019-01-13T13:22:09.537Z,1.10
2019-01-13T13:24:13.343Z,0.70
2019-01-13T13:26:17.009Z,1.20
2019-01-13T13:28:20.024Z,1.10
2019-01-13T13:30:23.988Z,0.97
2019-01-13T13:32:26.866Z,1.00
2019-01-13T13:34:29.767Z,0.97
2019-01-13T13:36:32.710Z,0.90
2019-01-13T13:38:35.654Z,0.97
2019-01-13T13:40:39.354Z,0.90
2019-01-13T13:42:43.180Z,0.93
2019-01-13T13:44:46.077Z,0.87
2019-01-13T13:46:48.978Z,0.80
2019-01-13T13:48:52.971Z,0.90
2019-01-13T13:50:54.833Z,0.80
2019-01-13T13:52:57.738Z,0.90
2019-01-13T13:55:01.070Z,0.70
2019-01-13T13:57:03.979Z,0.90
2019-01-13T13:59:06.911Z,0.93
2019-01-13T14:01:10.827Z,0.87
2019-01-13T14:03:13.793Z,0.90
2019-01-13T14:05:17.505Z,0.80
2019-01-13T14:07:21.234Z,0.90
2019-01-13T14:09:24.142Z,0.80
2019-01-13T14:11:27.055Z,0.70
2019-01-13T14:13:30.155Z,0.70
2019-01-13T14:15:33.841Z,0.70
2019-01-13T14:17:36.762Z,1.13
2019-01-13T14:19:39.923Z,0.90
2019-01-13T14:21:43.618Z,1.23
2019-01-13T14:23:47.410Z,1.03
2019-01-13T14:25:51.227Z,0.90
2019-01-13T14:27:54.901Z,0.70
2019-01-13T14:29:57.910Z,0.90
2019-01-13T14:32:01.626Z,0.80
2019-01-13T14:34:04.541Z,0.60
2019-01-13T14:36:07.458Z,0.80
2019-01-13T14:38:12.169Z,1.03
2019-01-13T14:40:18.047Z,1.00
2019-01-13T14:42:21.709Z,0.93
2019-01-13T14:44:25.596Z,1.10
2019-01-13T14:46:28.494Z,1.07
2019-01-13T14:48:32.234Z,1.00
2019-01-13T14:50:36.035Z,0.90
2019-01-13T14:52:39.709Z,1.23
2019-01-13T14:54:42.647Z,1.20
2019-01-13T14:56:45.603Z,1.20
2019-01-13T14:58:49.401Z,1.20
2019-01-13T15:00:53.082Z,1.20
2019-01-13T15:02:56.014Z,1.00
2019-01-13T15:04:58.942Z,1.10
2019-01-13T15:07:01.994Z,1.20
2019-01-13T15:09:05.671Z,1.20
2019-01-13T15:11:08.590Z,1.10
2019-01-13T15:13:11.511Z,1.23
2019-01-13T15:15:15.549Z,0.90
2019-01-13T15:17:18.454Z,0.90
2019-01-13T15:19:21.370Z,1.27
2019-01-13T15:21:25.394Z,0.73
2019-01-13T15:23:29.091Z,0.90
2019-01-13T15:25:33.039Z,1.10
2019-01-13T15:27:36.099Z,0.90
2019-01-13T15:29:39.125Z,0.93
2019-01-13T15:31:42.147Z,1.10
2019-01-13T15:33:45.843Z,1.20
2019-01-13T15:35:48.839Z,1.37
2019-01-13T15:37:52.529Z,1.30
2019-01-13T15:39:56.434Z,1.20
2019-01-13T15:42:00.101Z,0.90
2019-01-13T15:44:03.033Z,0.90
2019-01-13T15:46:05.977Z,1.20
2019-01-13T15:48:08.898Z,1.00
2019-01-13T15:50:12.653Z,1.10
2019-01-13T15:52:15.597Z,1.10
2019-01-13T15:54:18.544Z,1.20
2019-01-13T15:56:22.225Z,1.40
2019-01-13T15:58:26.046Z,1.20
2019-01-13T16:00:29.869Z,1.03
2019-01-13T16:02:32.801Z,1.17
2019-01-13T16:04:35.762Z,1.03
2019-01-13T16:06:38.696Z,1.27
2019-01-13T16:08:42.380Z,0.73
2019-01-13T16:10:46.106Z,0.80
2019-01-13T16:12:49.053Z,0.90
2019-01-13T16:14:51.969Z,0.73
2019-01-13T16:16:54.914Z,0.60
2019-01-13T16:18:57.925Z,0.77
2019-01-13T16:21:01.592Z,0.70
2019-01-13T16:23:04.815Z,0.80
2019-01-13T16:25:08.493Z,0.60
2019-01-13T16:27:11.471Z,0.70
2019-01-13T16:29:16.016Z,0.80
2019-01-13T16:31:19.688Z,0.83
2019-01-13T16:33:23.415Z,0.70
2019-01-13T16:35:27.219Z,0.60
2019-01-13T16:37:30.890Z,0.67
2019-01-13T16:39:33.805Z,0.60
2019-01-13T16:41:36.750Z,0.80
2019-01-13T16:43:39.765Z,0.83
2019-01-13T16:45:44.283Z,1.47
2019-01-13T16:47:48.093Z,1.67
2019-01-13T16:49:51.004Z,1.40
2019-01-13T16:51:53.929Z,2.90
2019-01-13T16:53:56.866Z,4.80
2019-01-13T16:55:59.785Z,5.23
2019-01-13T16:58:02.714Z,5.20
2019-01-13T17:00:14.175Z,4.13
2019-01-13T17:02:18.566Z,4.03
2019-01-13T17:04:28.509Z,3.53
2019-01-13T17:06:24.969Z,1.60
2019-01-13T17:08:27.949Z,1.10
2019-01-13T17:10:31.621Z,1.20
2019-01-13T17:12:34.567Z,0.50
2019-01-13T17:14:37.477Z,0.90
2019-01-13T17:16:40.514Z,0.70
2019-01-13T17:18:43.852Z,0.50
2019-01-13T17:20:46.778Z,0.50
2019-01-13T17:22:50.445Z,0.50
2019-01-13T17:24:53.575Z,0.50
2019-01-13T17:26:56.485Z,0.57
2019-01-13T17:28:59.420Z,0.57
2019-01-13T17:31:02.371Z,0.60
2019-01-13T17:33:05.388Z,0.80
2019-01-13T17:35:08.321Z,0.80
2019-01-13T17:37:11.557Z,0.80
2019-01-13T17:39:15.233Z,0.60
2019-01-13T17:41:18.143Z,0.77
2019-01-13T17:43:21.864Z,0.60
2019-01-13T17:45:24.786Z,0.50
2019-01-13T17:47:27.804Z,0.70
2019-01-13T17:49:30.841Z,0.60
2019-01-13T17:51:33.749Z,0.60
2019-01-13T17:53:36.756Z,0.60
2019-01-13T17:55:40.470Z,0.50
2019-01-13T17:57:43.538Z,0.55
2019-01-13T17:59:47.240Z,0.60
2019-01-13T18:01:51.153Z,0.77
2019-01-13T18:03:54.853Z,0.50
2019-01-13T18:05:58.645Z,0.50
2019-01-13T18:08:02.345Z,0.60
2019-01-13T18:10:06.050Z,0.50
2019-01-13T18:12:09.721Z,0.67
2019-01-13T18:14:12.657Z,0.60
2019-01-13T18:16:15.561Z,1.70
2019-01-13T18:18:18.493Z,0.60
2019-01-13T18:20:22.398Z,0.70
2019-01-13T18:22:26.074Z,0.60
2019-01-13T18:24:29.081Z,0.50
2019-01-13T18:26:32.781Z,0.87
2019-01-13T18:28:36.496Z,0.60
2019-01-13T18:30:40.177Z,0.50
2019-01-13T18:32:44.000Z,0.50
2019-01-13T18:34:50.340Z,0.50
2019-01-13T18:36:49.944Z,0.50
2019-01-13T18:38:53.747Z,0.60
2019-01-13T18:40:57.417Z,0.60
2019-01-13T18:43:00.430Z,0.50
2019-01-13T18:45:04.232Z,0.70
2019-01-13T18:47:07.909Z,0.70
2019-01-13T18:49:10.902Z,0.60
2019-01-13T18:51:14.942Z,0.50
2019-01-13T18:53:17.845Z,0.60
2019-01-13T18:55:20.794Z,0.50
2019-01-13T18:57:24.507Z,0.53
2019-01-13T18:59:27.571Z,0.40
2019-01-13T19:01:31.291Z,0.50
2019-01-13T19:03:34.266Z,0.50
2019-01-13T19:05:37.929Z,0.63
2019-01-13T19:07:42.348Z,0.60
2019-01-13T19:09:45.314Z,0.80
2019-01-13T19:11:48.217Z,1.27
2019-01-13T19:13:57.949Z,1.30
2019-01-13T19:16:00.889Z,0.60
2019-01-13T19:18:03.805Z,0.70
2019-01-13T19:20:09.466Z,0.60
2019-01-13T19:22:12.879Z,0.70
2019-01-13T19:24:16.652Z,0.60
2019-01-13T19:26:19.664Z,0.70
2019-01-13T19:28:23.160Z,0.50
2019-01-13T19:30:26.119Z,1.20
2019-01-13T19:32:29.050Z,0.60
2019-01-13T19:34:31.984Z,0.80
2019-01-13T19:36:35.673Z,0.70
2019-01-13T19:38:38.592Z,0.77
2019-01-13T19:40:42.899Z,0.77
2019-01-13T19:42:46.583Z,1.03
2019-01-13T19:44:50.267Z,1.00
2019-01-13T19:46:53.297Z,0.80
2019-01-13T19:48:56.222Z,0.80
2019-01-13T19:50:59.138Z,1.13
2019-01-13T19:53:02.858Z,1.10
2019-01-13T19:55:05.778Z,1.30
2019-01-13T19:57:08.702Z,1.20
2019-01-13T19:59:12.512Z,1.10
2019-01-13T20:01:16.190Z,1.03
2019-01-13T20:03:19.194Z,0.87
2019-01-13T20:05:22.923Z,1.00
2019-01-13T20:07:25.826Z,1.90
2019-01-13T20:09:28.883Z,0.97
2019-01-13T20:11:31.831Z,6.30
2019-01-13T20:13:35.506Z,1.20
2019-01-13T20:15:38.527Z,1.40
2019-01-13T20:17:42.357Z,1.20
2019-01-13T20:19:45.286Z,0.87
2019-01-13T20:21:48.249Z,0.95
2019-01-13T20:23:51.792Z,1.00
2019-01-13T20:25:55.495Z,1.20
2019-01-13T20:27:59.178Z,1.50
2019-01-13T20:30:02.117Z,1.00
2019-01-13T20:32:05.026Z,0.90
2019-01-13T20:34:08.040Z,1.17
2019-01-13T20:36:11.326Z,1.10
2019-01-13T20:38:14.412Z,0.90
2019-01-13T20:40:18.078Z,1.17
2019-01-13T20:42:21.050Z,0.70
2019-01-13T20:44:23.994Z,1.10
2019-01-13T20:46:26.925Z,0.80
2019-01-13T20:48:29.865Z,1.10
2019-01-13T20:50:32.774Z,1.30
2019-01-13T20:52:35.707Z,1.30
2019-01-13T20:54:38.691Z,0.90
2019-01-13T20:56:42.370Z,1.23
2019-01-13T20:58:46.060Z,1.30
2019-01-13T21:00:49.025Z,1.10
2019-01-13T21:02:52.052Z,1.07
2019-01-13T21:04:55.735Z,1.00
2019-01-13T21:06:59.456Z,1.10
2019-01-13T21:09:03.140Z,1.43
2019-01-13T21:11:06.851Z,1.40
2019-01-13T21:13:10.653Z,1.10
2019-01-13T21:15:15.757Z,1.33
2019-01-13T21:17:18.833Z,3.57
2019-01-13T21:19:22.583Z,1.23
2019-01-13T21:21:25.506Z,1.07
2019-01-13T21:23:28.431Z,1.00
2019-01-13T21:25:32.342Z,1.40
2019-01-13T21:27:36.041Z,1.30
2019-01-13T21:29:39.716Z,0.80
2019-01-13T21:31:42.683Z,0.80
2019-01-13T21:33:45.810Z,0.98
2019-01-13T21:35:48.776Z,1.13
2019-01-13T21:37:52.198Z,0.90
2019-01-13T21:39:55.124Z,1.13
2019-01-13T21:41:58.038Z,0.90
2019-01-13T21:44:01.810Z,0.60
2019-01-13T21:46:04.737Z,0.90
2019-01-13T21:48:08.409Z,0.50
2019-01-13T21:50:13.987Z,0.70
2019-01-13T21:52:16.891Z,0.57
2019-01-13T21:54:19.802Z,0.50
2019-01-13T21:56:23.254Z,0.57
2019-01-13T21:58:26.177Z,0.70
2019-01-13T22:00:29.094Z,0.70
2019-01-13T22:02:32.825Z,0.60
2019-01-13T22:04:36.491Z,0.60
2019-01-13T22:06:39.594Z,1.00
2019-01-13T22:08:42.525Z,0.50
2019-01-13T22:10:45.442Z,0.60
2019-01-13T22:12:48.357Z,0.60
2019-01-13T22:14:51.287Z,0.80
2019-01-13T22:16:54.212Z,0.57
2019-01-13T22:18:57.125Z,0.53
2019-01-13T22:21:00.281Z,0.53
2019-01-13T22:23:04.029Z,0.75
2019-01-13T22:25:06.961Z,0.60
2019-01-13T22:27:10.025Z,0.73
2019-01-13T22:29:13.718Z,0.40
2019-01-13T22:31:22.680Z,0.50
2019-01-13T22:33:25.602Z,0.77
2019-01-13T22:35:28.542Z,0.80
2019-01-13T22:37:31.461Z,0.60
2019-01-13T22:39:34.683Z,0.67
2019-01-13T22:41:38.357Z,0.70
2019-01-13T22:43:42.809Z,0.50
2019-01-13T22:45:46.943Z,0.70
2019-01-13T22:47:49.868Z,0.60
2019-01-13T22:49:52.878Z,0.70
2019-01-13T22:51:56.580Z,0.57
2019-01-13T22:53:59.506Z,0.85
2019-01-13T22:56:03.185Z,0.60
2019-01-13T22:58:06.950Z,0.50
2019-01-13T23:00:32.093Z,0.80
2019-01-13T23:02:35.010Z,0.60
2019-01-13T23:04:38.024Z,0.40
2019-01-13T23:06:41.688Z,0.80
2019-01-13T23:08:44.670Z,0.62
2019-01-13T23:10:47.613Z,0.80
2019-01-13T23:12:50.524Z,0.50
2019-01-13T23:14:53.492Z,0.60
2019-01-13T23:16:56.945Z,0.57
2019-01-13T23:19:00.641Z,0.62
2019-01-13T23:21:04.322Z,0.75
2019-01-13T23:23:08.164Z,0.52
2019-01-13T23:25:11.079Z,0.60
2019-01-13T23:27:14.065Z,0.60
2019-01-13T23:29:17.505Z,0.60
2019-01-13T23:31:21.178Z,0.77
2019-01-13T23:33:25.603Z,0.75
2019-01-13T23:35:28.615Z,0.40
2019-01-13T23:37:31.541Z,0.80
2019-01-13T23:39:37.150Z,0.60
2019-01-13T23:41:40.318Z,0.82
2019-01-13T23:43:43.990Z,0.70
2019-01-13T23:45:47.003Z,0.70
2019-01-13T23:47:50.201Z,0.80
2019-01-13T23:49:53.238Z,0.60
2019-01-13T23:51:56.924Z,0.63
2019-01-13T23:54:00.993Z,0.70
2019-01-13T23:56:03.909Z,1.10
2019-01-13T23:58:06.826Z,0.60
